sensor_id;sensor_type;location;lat;lon;timestamp;P1;durP1;ratioP1;P2;durP2;ratioP2
24357;SDS011;13668;52.154;5.580;2023-04-01T00:00:46;12.82;;;9.80;;
24357;SDS011;13668;52.154;5.580;2023-04-01T00:03:12;15.30;;;9.88;;
24357;SDS011;13668;52.154;5.580;2023-04-01T00:05:39;13.98;;;10.05;;
24357;SDS011;13668;52.154;5.580;2023-04-01T00:08:05;15.55;;;11.10;;
24357;SDS011;13668;52.154;5.580;2023-04-01T00:10:31;16.83;;;11.05;;
24357;SDS011;13668;52.154;5.580;2023-04-01T00:12:57;14.02;;;10.52;;
24357;SDS011;13668;52.154;5.580;2023-04-01T00:15:23;17.35;;;11.18;;
24357;SDS011;13668;52.154;5.580;2023-04-01T00:17:49;16.92;;;12.68;;
24357;SDS011;13668;52.154;5.580;2023-04-01T00:20:15;19.50;;;12.40;;
24357;SDS011;13668;52.154;5.580;2023-04-01T00:22:41;16.02;;;12.43;;
24357;SDS011;13668;52.154;5.580;2023-04-01T00:25:07;18.23;;;13.15;;
24357;SDS011;13668;52.154;5.580;2023-04-01T00:27:34;21.85;;;13.30;;
24357;SDS011;13668;52.154;5.580;2023-04-01T00:30:02;19.45;;;13.20;;
24357;SDS011;13668;52.154;5.580;2023-04-01T00:32:29;21.05;;;13.98;;
24357;SDS011;13668;52.154;5.580;2023-04-01T00:34:56;24.30;;;15.15;;
24357;SDS011;13668;52.154;5.580;2023-04-01T00:37:24;23.45;;;14.30;;
24357;SDS011;13668;52.154;5.580;2023-04-01T00:39:50;22.98;;;14.85;;
24357;SDS011;13668;52.154;5.580;2023-04-01T00:42:16;26.50;;;15.25;;
24357;SDS011;13668;52.154;5.580;2023-04-01T00:44:44;22.17;;;13.25;;
24357;SDS011;13668;52.154;5.580;2023-04-01T00:47:10;29.67;;;14.55;;
24357;SDS011;13668;52.154;5.580;2023-04-01T00:49:37;22.90;;;15.38;;
24357;SDS011;13668;52.154;5.580;2023-04-01T00:52:05;25.27;;;15.68;;
24357;SDS011;13668;52.154;5.580;2023-04-01T00:54:31;22.17;;;13.98;;
24357;SDS011;13668;52.154;5.580;2023-04-01T00:59:25;29.40;;;15.45;;
24357;SDS011;13668;52.154;5.580;2023-04-01T01:01:52;31.38;;;15.68;;
24357;SDS011;13668;52.154;5.580;2023-04-01T01:04:24;30.52;;;17.95;;
24357;SDS011;13668;52.154;5.580;2023-04-01T01:06:59;27.42;;;16.52;;
24357;SDS011;13668;52.154;5.580;2023-04-01T01:09:38;30.45;;;18.92;;
24357;SDS011;13668;52.154;5.580;2023-04-01T01:27:17;33.05;;;18.13;;
24357;SDS011;13668;52.154;5.580;2023-04-01T01:35:20;39.15;;;18.38;;
24357;SDS011;13668;52.154;5.580;2023-04-01T01:37:49;37.15;;;18.95;;
24357;SDS011;13668;52.154;5.580;2023-04-01T01:40:16;41.22;;;21.75;;
24357;SDS011;13668;52.154;5.580;2023-04-01T01:42:46;39.92;;;20.67;;
24357;SDS011;13668;52.154;5.580;2023-04-01T01:45:12;37.40;;;21.85;;
24357;SDS011;13668;52.154;5.580;2023-04-01T01:47:42;39.20;;;21.00;;
24357;SDS011;13668;52.154;5.580;2023-04-01T01:50:08;42.67;;;22.08;;
24357;SDS011;13668;52.154;5.580;2023-04-01T01:52:35;38.38;;;20.92;;
24357;SDS011;13668;52.154;5.580;2023-04-01T01:55:01;31.80;;;19.05;;
24357;SDS011;13668;52.154;5.580;2023-04-01T01:57:34;38.22;;;18.20;;
24357;SDS011;13668;52.154;5.580;2023-04-01T02:00:07;32.28;;;17.40;;
24357;SDS011;13668;52.154;5.580;2023-04-01T02:02:41;27.02;;;17.25;;
24357;SDS011;13668;52.154;5.580;2023-04-01T02:05:09;29.30;;;16.52;;
24357;SDS011;13668;52.154;5.580;2023-04-01T02:07:36;30.75;;;17.40;;
24357;SDS011;13668;52.154;5.580;2023-04-01T02:10:03;26.80;;;16.00;;
24357;SDS011;13668;52.154;5.580;2023-04-01T02:12:29;29.40;;;16.00;;
24357;SDS011;13668;52.154;5.580;2023-04-01T02:15:00;25.90;;;14.15;;
24357;SDS011;13668;52.154;5.580;2023-04-01T02:17:30;25.30;;;14.65;;
24357;SDS011;13668;52.154;5.580;2023-04-01T02:20:08;20.00;;;12.35;;
24357;SDS011;13668;52.154;5.580;2023-04-01T02:22:36;17.92;;;10.88;;
24357;SDS011;13668;52.154;5.580;2023-04-01T02:25:08;13.30;;;10.43;;
24357;SDS011;13668;52.154;5.580;2023-04-01T02:27:34;14.75;;;10.35;;
24357;SDS011;13668;52.154;5.580;2023-04-01T02:30:01;20.40;;;11.82;;
24357;SDS011;13668;52.154;5.580;2023-04-01T02:32:27;18.02;;;11.85;;
24357;SDS011;13668;52.154;5.580;2023-04-01T02:34:55;20.60;;;12.32;;
24357;SDS011;13668;52.154;5.580;2023-04-01T02:37:21;18.45;;;12.82;;
24357;SDS011;13668;52.154;5.580;2023-04-01T02:39:47;21.33;;;12.65;;
24357;SDS011;13668;52.154;5.580;2023-04-01T02:42:13;21.27;;;13.48;;
24357;SDS011;13668;52.154;5.580;2023-04-01T02:44:40;20.00;;;13.48;;
24357;SDS011;13668;52.154;5.580;2023-04-01T02:47:05;16.05;;;10.70;;
24357;SDS011;13668;52.154;5.580;2023-04-01T02:49:31;16.30;;;11.60;;
24357;SDS011;13668;52.154;5.580;2023-04-01T02:51:57;16.10;;;10.35;;
24357;SDS011;13668;52.154;5.580;2023-04-01T02:54:23;13.38;;;9.50;;
24357;SDS011;13668;52.154;5.580;2023-04-01T02:56:49;13.82;;;10.45;;
24357;SDS011;13668;52.154;5.580;2023-04-01T02:59:15;17.88;;;10.25;;
24357;SDS011;13668;52.154;5.580;2023-04-01T03:01:41;15.35;;;9.98;;
24357;SDS011;13668;52.154;5.580;2023-04-01T03:04:07;14.45;;;9.75;;
24357;SDS011;13668;52.154;5.580;2023-04-01T03:06:33;17.63;;;10.88;;
24357;SDS011;13668;52.154;5.580;2023-04-01T03:08:59;16.15;;;10.52;;
24357;SDS011;13668;52.154;5.580;2023-04-01T03:11:25;15.82;;;11.07;;
24357;SDS011;13668;52.154;5.580;2023-04-01T03:13:51;12.48;;;10.23;;
24357;SDS011;13668;52.154;5.580;2023-04-01T03:16:17;13.48;;;10.15;;
24357;SDS011;13668;52.154;5.580;2023-04-01T03:18:43;14.57;;;10.95;;
24357;SDS011;13668;52.154;5.580;2023-04-01T03:21:20;15.45;;;11.27;;
24357;SDS011;13668;52.154;5.580;2023-04-01T03:23:46;14.18;;;10.85;;
24357;SDS011;13668;52.154;5.580;2023-04-01T03:26:12;14.65;;;10.45;;
24357;SDS011;13668;52.154;5.580;2023-04-01T03:28:38;13.13;;;11.20;;
24357;SDS011;13668;52.154;5.580;2023-04-01T03:31:04;12.93;;;9.18;;
24357;SDS011;13668;52.154;5.580;2023-04-01T03:33:31;13.32;;;9.93;;
24357;SDS011;13668;52.154;5.580;2023-04-01T03:35:57;15.43;;;10.52;;
24357;SDS011;13668;52.154;5.580;2023-04-01T03:38:23;11.77;;;9.52;;
24357;SDS011;13668;52.154;5.580;2023-04-01T03:40:49;10.65;;;9.20;;
24357;SDS011;13668;52.154;5.580;2023-04-01T03:43:15;11.15;;;8.95;;
24357;SDS011;13668;52.154;5.580;2023-04-01T03:45:48;11.88;;;9.35;;
24357;SDS011;13668;52.154;5.580;2023-04-01T03:48:15;13.32;;;9.68;;
24357;SDS011;13668;52.154;5.580;2023-04-01T03:50:41;11.40;;;8.95;;
24357;SDS011;13668;52.154;5.580;2023-04-01T03:53:07;11.65;;;8.55;;
24357;SDS011;13668;52.154;5.580;2023-04-01T03:55:33;9.65;;;7.65;;
24357;SDS011;13668;52.154;5.580;2023-04-01T03:58:00;12.48;;;8.60;;
24357;SDS011;13668;52.154;5.580;2023-04-01T04:00:28;12.00;;;8.43;;
24357;SDS011;13668;52.154;5.580;2023-04-01T04:02:54;11.15;;;7.57;;
24357;SDS011;13668;52.154;5.580;2023-04-01T04:05:21;11.80;;;8.70;;
24357;SDS011;13668;52.154;5.580;2023-04-01T04:07:47;13.40;;;9.48;;
24357;SDS011;13668;52.154;5.580;2023-04-01T04:10:13;12.88;;;8.38;;
24357;SDS011;13668;52.154;5.580;2023-04-01T04:12:39;12.90;;;9.13;;
24357;SDS011;13668;52.154;5.580;2023-04-01T04:15:05;13.70;;;9.35;;
24357;SDS011;13668;52.154;5.580;2023-04-01T04:17:31;10.40;;;9.02;;
24357;SDS011;13668;52.154;5.580;2023-04-01T04:19:57;14.90;;;10.25;;
24357;SDS011;13668;52.154;5.580;2023-04-01T04:22:23;14.35;;;10.27;;
24357;SDS011;13668;52.154;5.580;2023-04-01T04:24:49;14.65;;;9.90;;
24357;SDS011;13668;52.154;5.580;2023-04-01T04:27:15;14.95;;;10.13;;
24357;SDS011;13668;52.154;5.580;2023-04-01T04:29:41;18.65;;;12.55;;
24357;SDS011;13668;52.154;5.580;2023-04-01T04:32:07;19.98;;;11.98;;
24357;SDS011;13668;52.154;5.580;2023-04-01T04:34:33;24.52;;;13.65;;
24357;SDS011;13668;52.154;5.580;2023-04-01T04:36:59;22.38;;;13.65;;
24357;SDS011;13668;52.154;5.580;2023-04-01T04:39:25;27.13;;;14.15;;
24357;SDS011;13668;52.154;5.580;2023-04-01T04:41:51;25.88;;;14.63;;
24357;SDS011;13668;52.154;5.580;2023-04-01T04:44:17;27.90;;;14.50;;
24357;SDS011;13668;52.154;5.580;2023-04-01T04:46:43;28.48;;;16.33;;
24357;SDS011;13668;52.154;5.580;2023-04-01T04:49:09;33.00;;;15.82;;
24357;SDS011;13668;52.154;5.580;2023-04-01T04:51:35;28.73;;;16.15;;
24357;SDS011;13668;52.154;5.580;2023-04-01T04:54:03;31.02;;;15.68;;
24357;SDS011;13668;52.154;5.580;2023-04-01T04:56:29;29.75;;;15.60;;
24357;SDS011;13668;52.154;5.580;2023-04-01T04:58:55;30.05;;;14.93;;
24357;SDS011;13668;52.154;5.580;2023-04-01T05:01:21;32.70;;;16.35;;
24357;SDS011;13668;52.154;5.580;2023-04-01T05:03:47;27.77;;;14.20;;
24357;SDS011;13668;52.154;5.580;2023-04-01T05:06:14;28.20;;;15.25;;
24357;SDS011;13668;52.154;5.580;2023-04-01T05:08:41;28.95;;;14.52;;
24357;SDS011;13668;52.154;5.580;2023-04-01T05:11:09;27.73;;;14.32;;
24357;SDS011;13668;52.154;5.580;2023-04-01T05:13:36;30.05;;;13.82;;
24357;SDS011;13668;52.154;5.580;2023-04-01T05:16:02;31.80;;;15.18;;
24357;SDS011;13668;52.154;5.580;2023-04-01T05:18:28;22.70;;;12.98;;
24357;SDS011;13668;52.154;5.580;2023-04-01T05:20:54;28.65;;;14.27;;
24357;SDS011;13668;52.154;5.580;2023-04-01T05:23:21;26.02;;;13.55;;
24357;SDS011;13668;52.154;5.580;2023-04-01T05:25:48;25.73;;;12.85;;
24357;SDS011;13668;52.154;5.580;2023-04-01T05:28:15;22.25;;;12.32;;
24357;SDS011;13668;52.154;5.580;2023-04-01T05:30:42;26.35;;;13.25;;
24357;SDS011;13668;52.154;5.580;2023-04-01T05:33:09;24.45;;;12.02;;
24357;SDS011;13668;52.154;5.580;2023-04-01T05:35:36;26.20;;;11.68;;
24357;SDS011;13668;52.154;5.580;2023-04-01T05:38:02;26.30;;;12.00;;
24357;SDS011;13668;52.154;5.580;2023-04-01T05:40:28;28.88;;;12.63;;
24357;SDS011;13668;52.154;5.580;2023-04-01T05:42:54;21.83;;;11.23;;
24357;SDS011;13668;52.154;5.580;2023-04-01T05:45:20;20.95;;;11.18;;
24357;SDS011;13668;52.154;5.580;2023-04-01T05:47:46;18.27;;;10.60;;
24357;SDS011;13668;52.154;5.580;2023-04-01T05:50:12;20.90;;;10.98;;
24357;SDS011;13668;52.154;5.580;2023-04-01T05:52:38;22.40;;;11.10;;
24357;SDS011;13668;52.154;5.580;2023-04-01T05:55:05;17.88;;;10.43;;
24357;SDS011;13668;52.154;5.580;2023-04-01T05:57:31;16.92;;;9.43;;
24357;SDS011;13668;52.154;5.580;2023-04-01T05:59:57;15.48;;;9.20;;
24357;SDS011;13668;52.154;5.580;2023-04-01T06:02:23;15.50;;;8.35;;
24357;SDS011;13668;52.154;5.580;2023-04-01T06:04:49;12.30;;;6.82;;
24357;SDS011;13668;52.154;5.580;2023-04-01T06:07:16;11.02;;;6.78;;
24357;SDS011;13668;52.154;5.580;2023-04-01T06:09:42;7.47;;;4.75;;
24357;SDS011;13668;52.154;5.580;2023-04-01T06:12:14;9.07;;;4.85;;
24357;SDS011;13668;52.154;5.580;2023-04-01T06:22:45;5.72;;;4.15;;
24357;SDS011;13668;52.154;5.580;2023-04-01T06:28:10;7.25;;;4.40;;
24357;SDS011;13668;52.154;5.580;2023-04-01T06:30:43;6.13;;;4.55;;
24357;SDS011;13668;52.154;5.580;2023-04-01T06:33:55;6.65;;;5.03;;
24357;SDS011;13668;52.154;5.580;2023-04-01T06:36:15;7.50;;;4.50;;
24357;SDS011;13668;52.154;5.580;2023-04-01T06:39:03;5.70;;;4.28;;
24357;SDS011;13668;52.154;5.580;2023-04-01T06:41:40;5.47;;;4.15;;
24357;SDS011;13668;52.154;5.580;2023-04-01T06:44:16;7.00;;;4.40;;
24357;SDS011;13668;52.154;5.580;2023-04-01T06:46:52;6.32;;;4.53;;
24357;SDS011;13668;52.154;5.580;2023-04-01T06:49:41;5.65;;;3.90;;
24357;SDS011;13668;52.154;5.580;2023-04-01T06:54:36;7.10;;;4.25;;
24357;SDS011;13668;52.154;5.580;2023-04-01T06:59:51;4.97;;;3.90;;
24357;SDS011;13668;52.154;5.580;2023-04-01T07:02:23;5.97;;;3.40;;
24357;SDS011;13668;52.154;5.580;2023-04-01T07:04:51;5.22;;;3.38;;
24357;SDS011;13668;52.154;5.580;2023-04-01T07:07:31;4.47;;;3.20;;
24357;SDS011;13668;52.154;5.580;2023-04-01T07:09:59;5.05;;;3.10;;
24357;SDS011;13668;52.154;5.580;2023-04-01T07:14:57;2.17;;;1.88;;
24357;SDS011;13668;52.154;5.580;2023-04-01T07:17:25;4.78;;;2.33;;
24357;SDS011;13668;52.154;5.580;2023-04-01T07:19:56;3.88;;;2.03;;
24357;SDS011;13668;52.154;5.580;2023-04-01T07:24:53;3.20;;;1.83;;
24357;SDS011;13668;52.154;5.580;2023-04-01T07:27:19;4.22;;;1.92;;
24357;SDS011;13668;52.154;5.580;2023-04-01T07:29:45;1.80;;;1.35;;
24357;SDS011;13668;52.154;5.580;2023-04-01T07:32:27;1.90;;;1.27;;
24357;SDS011;13668;52.154;5.580;2023-04-01T07:47:50;3.13;;;1.80;;
24357;SDS011;13668;52.154;5.580;2023-04-01T07:50:22;3.80;;;2.50;;
24357;SDS011;13668;52.154;5.580;2023-04-01T07:52:58;4.45;;;2.25;;
24357;SDS011;13668;52.154;5.580;2023-04-01T07:58:12;3.05;;;2.70;;
24357;SDS011;13668;52.154;5.580;2023-04-01T08:00:46;3.55;;;2.85;;
24357;SDS011;13668;52.154;5.580;2023-04-01T08:03:17;3.30;;;2.78;;
24357;SDS011;13668;52.154;5.580;2023-04-01T08:08:19;2.75;;;2.47;;
24357;SDS011;13668;52.154;5.580;2023-04-01T08:10:55;2.78;;;2.30;;
24357;SDS011;13668;52.154;5.580;2023-04-01T08:21:45;2.45;;;2.25;;
24357;SDS011;13668;52.154;5.580;2023-04-01T08:26:45;3.38;;;1.95;;
24357;SDS011;13668;52.154;5.580;2023-04-01T08:29:14;2.17;;;1.95;;
24357;SDS011;13668;52.154;5.580;2023-04-01T08:31:48;3.55;;;2.30;;
24357;SDS011;13668;52.154;5.580;2023-04-01T08:34:15;2.03;;;1.77;;
24357;SDS011;13668;52.154;5.580;2023-04-01T08:36:45;3.17;;;2.45;;
24357;SDS011;13668;52.154;5.580;2023-04-01T08:39:17;3.78;;;2.58;;
24357;SDS011;13668;52.154;5.580;2023-04-01T08:47:13;4.63;;;3.05;;
24357;SDS011;13668;52.154;5.580;2023-04-01T08:52:37;3.25;;;2.88;;
24357;SDS011;13668;52.154;5.580;2023-04-01T08:57:52;5.13;;;3.20;;
24357;SDS011;13668;52.154;5.580;2023-04-01T09:21:06;7.50;;;4.90;;
24357;SDS011;13668;52.154;5.580;2023-04-01T09:26:25;6.20;;;4.93;;
24357;SDS011;13668;52.154;5.580;2023-04-01T09:29:11;6.43;;;5.82;;
24357;SDS011;13668;52.154;5.580;2023-04-01T09:34:30;6.90;;;6.20;;
24357;SDS011;13668;52.154;5.580;2023-04-01T09:39:42;9.50;;;6.47;;
24357;SDS011;13668;52.154;5.580;2023-04-01T09:44:46;8.18;;;6.40;;
24357;SDS011;13668;52.154;5.580;2023-04-01T09:57:22;10.82;;;7.20;;
24357;SDS011;13668;52.154;5.580;2023-04-01T10:00:06;7.25;;;6.28;;
24357;SDS011;13668;52.154;5.580;2023-04-01T10:10:35;7.55;;;5.30;;
24357;SDS011;13668;52.154;5.580;2023-04-01T10:15:43;5.55;;;4.53;;
24357;SDS011;13668;52.154;5.580;2023-04-01T10:33:48;5.13;;;3.28;;
24357;SDS011;13668;52.154;5.580;2023-04-01T10:39:03;4.63;;;4.22;;
24357;SDS011;13668;52.154;5.580;2023-04-01T10:42:16;6.40;;;4.25;;
24357;SDS011;13668;52.154;5.580;2023-04-01T10:47:48;3.63;;;3.33;;
24357;SDS011;13668;52.154;5.580;2023-04-01T10:50:46;3.28;;;2.97;;
24357;SDS011;13668;52.154;5.580;2023-04-01T11:01:05;4.53;;;3.83;;
24357;SDS011;13668;52.154;5.580;2023-04-01T11:03:43;4.53;;;3.92;;
24357;SDS011;13668;52.154;5.580;2023-04-01T11:06:18;3.78;;;3.38;;
24357;SDS011;13668;52.154;5.580;2023-04-01T11:12:14;3.30;;;2.72;;
24357;SDS011;13668;52.154;5.580;2023-04-01T11:14:25;3.58;;;3.17;;
24357;SDS011;13668;52.154;5.580;2023-04-01T11:17:08;1.83;;;1.73;;
24357;SDS011;13668;52.154;5.580;2023-04-01T11:45:36;3.20;;;2.90;;
24357;SDS011;13668;52.154;5.580;2023-04-01T11:51:05;3.05;;;2.80;;
24357;SDS011;13668;52.154;5.580;2023-04-01T11:53:47;2.83;;;2.63;;
24357;SDS011;13668;52.154;5.580;2023-04-01T12:06:24;3.70;;;3.35;;
24357;SDS011;13668;52.154;5.580;2023-04-01T12:11:42;3.33;;;2.80;;
24357;SDS011;13668;52.154;5.580;2023-04-01T12:24:36;3.63;;;3.22;;
24357;SDS011;13668;52.154;5.580;2023-04-01T12:34:58;3.38;;;3.08;;
24357;SDS011;13668;52.154;5.580;2023-04-01T12:40:02;5.10;;;3.90;;
24357;SDS011;13668;52.154;5.580;2023-04-01T12:45:29;4.00;;;3.60;;
24357;SDS011;13668;52.154;5.580;2023-04-01T12:55:30;4.55;;;3.70;;
24357;SDS011;13668;52.154;5.580;2023-04-01T13:03:10;4.20;;;3.80;;
24357;SDS011;13668;52.154;5.580;2023-04-01T13:08:31;4.63;;;3.60;;
24357;SDS011;13668;52.154;5.580;2023-04-01T13:21:42;3.40;;;3.10;;
24357;SDS011;13668;52.154;5.580;2023-04-01T13:34:34;3.22;;;2.92;;
24357;SDS011;13668;52.154;5.580;2023-04-01T13:39:52;4.53;;;4.03;;
24357;SDS011;13668;52.154;5.580;2023-04-01T13:42:26;5.68;;;4.30;;
24357;SDS011;13668;52.154;5.580;2023-04-01T13:44:56;4.43;;;4.00;;
24357;SDS011;13668;52.154;5.580;2023-04-01T13:52:52;6.00;;;4.25;;
24357;SDS011;13668;52.154;5.580;2023-04-01T13:55:22;4.63;;;4.10;;
24357;SDS011;13668;52.154;5.580;2023-04-01T14:00:27;4.75;;;3.92;;
24357;SDS011;13668;52.154;5.580;2023-04-01T14:08:15;5.07;;;3.90;;
24357;SDS011;13668;52.154;5.580;2023-04-01T14:10:45;4.60;;;4.03;;
24357;SDS011;13668;52.154;5.580;2023-04-01T14:13:29;4.68;;;3.72;;
24357;SDS011;13668;52.154;5.580;2023-04-01T14:16:06;4.45;;;4.05;;
24357;SDS011;13668;52.154;5.580;2023-04-01T14:23:51;4.63;;;4.20;;
24357;SDS011;13668;52.154;5.580;2023-04-01T14:29:00;4.65;;;4.25;;
24357;SDS011;13668;52.154;5.580;2023-04-01T14:31:34;4.88;;;4.32;;
24357;SDS011;13668;52.154;5.580;2023-04-01T14:41:55;4.30;;;3.90;;
24357;SDS011;13668;52.154;5.580;2023-04-01T14:49:30;4.70;;;4.30;;
24357;SDS011;13668;52.154;5.580;2023-04-01T14:52:03;4.05;;;3.65;;
24357;SDS011;13668;52.154;5.580;2023-04-01T14:54:30;3.92;;;3.47;;
24357;SDS011;13668;52.154;5.580;2023-04-01T14:57:13;4.03;;;3.60;;
24357;SDS011;13668;52.154;5.580;2023-04-01T14:59:40;4.47;;;4.07;;
24357;SDS011;13668;52.154;5.580;2023-04-01T15:02:28;5.28;;;4.07;;
24357;SDS011;13668;52.154;5.580;2023-04-01T15:10:32;4.30;;;3.90;;
24357;SDS011;13668;52.154;5.580;2023-04-01T15:26:38;3.65;;;3.35;;
24357;SDS011;13668;52.154;5.580;2023-04-01T15:31:43;3.53;;;3.22;;
24357;SDS011;13668;52.154;5.580;2023-04-01T15:39:24;3.58;;;3.28;;
24357;SDS011;13668;52.154;5.580;2023-04-01T15:46:54;4.05;;;3.65;;
24357;SDS011;13668;52.154;5.580;2023-04-01T15:51:53;3.55;;;3.25;;
24357;SDS011;13668;52.154;5.580;2023-04-01T15:54:45;3.80;;;3.50;;
24357;SDS011;13668;52.154;5.580;2023-04-01T15:59:53;3.53;;;3.22;;
24357;SDS011;13668;52.154;5.580;2023-04-01T16:02:22;4.00;;;3.70;;
24357;SDS011;13668;52.154;5.580;2023-04-01T16:04:58;3.80;;;3.50;;
24357;SDS011;13668;52.154;5.580;2023-04-01T16:07:29;4.97;;;4.03;;
24357;SDS011;13668;52.154;5.580;2023-04-01T16:12:59;5.28;;;3.60;;
24357;SDS011;13668;52.154;5.580;2023-04-01T16:15:34;5.03;;;4.30;;
24357;SDS011;13668;52.154;5.580;2023-04-01T16:18:16;4.28;;;3.92;;
24357;SDS011;13668;52.154;5.580;2023-04-01T16:20:51;4.72;;;4.32;;
24357;SDS011;13668;52.154;5.580;2023-04-01T16:28:48;4.65;;;4.20;;
24357;SDS011;13668;52.154;5.580;2023-04-01T16:33:58;5.53;;;3.90;;
24357;SDS011;13668;52.154;5.580;2023-04-01T16:41:31;4.97;;;4.47;;
24357;SDS011;13668;52.154;5.580;2023-04-01T16:44:10;5.32;;;4.80;;
24357;SDS011;13668;52.154;5.580;2023-04-01T16:46:39;5.63;;;5.13;;
24357;SDS011;13668;52.154;5.580;2023-04-01T16:57:12;5.03;;;4.63;;
24357;SDS011;13668;52.154;5.580;2023-04-01T17:02:11;9.20;;;6.57;;
24357;SDS011;13668;52.154;5.580;2023-04-01T17:07:21;5.22;;;4.75;;
24357;SDS011;13668;52.154;5.580;2023-04-01T17:12:27;6.05;;;5.13;;
24357;SDS011;13668;52.154;5.580;2023-04-01T17:15:13;6.28;;;5.68;;
24357;SDS011;13668;52.154;5.580;2023-04-01T17:17:44;8.07;;;6.82;;
24357;SDS011;13668;52.154;5.580;2023-04-01T17:23:05;6.25;;;5.68;;
24357;SDS011;13668;52.154;5.580;2023-04-01T17:30:51;6.07;;;5.00;;
24357;SDS011;13668;52.154;5.580;2023-04-01T17:36:12;4.93;;;4.50;;
24357;SDS011;13668;52.154;5.580;2023-04-01T17:43:53;5.63;;;5.13;;
24357;SDS011;13668;52.154;5.580;2023-04-01T17:46:28;6.13;;;5.53;;
24357;SDS011;13668;52.154;5.580;2023-04-01T17:57:09;6.95;;;6.20;;
24357;SDS011;13668;52.154;5.580;2023-04-01T17:59:36;5.63;;;5.13;;
24357;SDS011;13668;52.154;5.580;2023-04-01T18:04:37;5.72;;;5.15;;
24357;SDS011;13668;52.154;5.580;2023-04-01T18:15:00;6.03;;;5.50;;
24357;SDS011;13668;52.154;5.580;2023-04-01T18:17:37;6.18;;;5.68;;
24357;SDS011;13668;52.154;5.580;2023-04-01T18:20:20;5.95;;;5.45;;
24357;SDS011;13668;52.154;5.580;2023-04-01T18:22:48;6.97;;;6.38;;
24357;SDS011;13668;52.154;5.580;2023-04-01T18:25:24;7.75;;;7.00;;
24357;SDS011;13668;52.154;5.580;2023-04-01T18:28:12;7.65;;;6.90;;
24357;SDS011;13668;52.154;5.580;2023-04-01T18:30:40;7.05;;;6.35;;
24357;SDS011;13668;52.154;5.580;2023-04-01T18:33:22;7.35;;;6.38;;
24357;SDS011;13668;52.154;5.580;2023-04-01T18:38:35;7.35;;;6.40;;
24357;SDS011;13668;52.154;5.580;2023-04-01T18:46:27;6.68;;;6.07;;
24357;SDS011;13668;52.154;5.580;2023-04-01T18:51:55;5.93;;;5.20;;
24357;SDS011;13668;52.154;5.580;2023-04-01T18:56:48;5.68;;;5.18;;
24357;SDS011;13668;52.154;5.580;2023-04-01T19:09:47;6.40;;;5.90;;
24357;SDS011;13668;52.154;5.580;2023-04-01T19:19:44;5.45;;;4.95;;
24357;SDS011;13668;52.154;5.580;2023-04-01T19:27:45;6.22;;;5.63;;
24357;SDS011;13668;52.154;5.580;2023-04-01T19:30:27;6.55;;;5.82;;
24357;SDS011;13668;52.154;5.580;2023-04-01T19:35:38;6.50;;;5.93;;
24357;SDS011;13668;52.154;5.580;2023-04-01T19:46:26;4.90;;;4.50;;
24357;SDS011;13668;52.154;5.580;2023-04-01T19:53:48;5.90;;;5.05;;
24357;SDS011;13668;52.154;5.580;2023-04-01T19:56:19;5.75;;;5.20;;
24357;SDS011;13668;52.154;5.580;2023-04-01T19:58:51;5.50;;;5.00;;
24357;SDS011;13668;52.154;5.580;2023-04-01T20:01:22;6.43;;;5.82;;
24357;SDS011;13668;52.154;5.580;2023-04-01T20:03:55;6.38;;;5.78;;
24357;SDS011;13668;52.154;5.580;2023-04-01T20:06:25;6.63;;;6.03;;
24357;SDS011;13668;52.154;5.580;2023-04-01T20:09:11;6.88;;;6.28;;
24357;SDS011;13668;52.154;5.580;2023-04-01T20:11:51;7.95;;;7.00;;
24357;SDS011;13668;52.154;5.580;2023-04-01T20:14:34;7.47;;;6.78;;
24357;SDS011;13668;52.154;5.580;2023-04-01T20:17:11;8.02;;;7.32;;
24357;SDS011;13668;52.154;5.580;2023-04-01T20:19:41;8.20;;;7.40;;
24357;SDS011;13668;52.154;5.580;2023-04-01T20:22:16;9.35;;;8.32;;
24357;SDS011;13668;52.154;5.580;2023-04-01T20:24:47;10.23;;;9.05;;
24357;SDS011;13668;52.154;5.580;2023-04-01T20:40:41;11.20;;;10.00;;
24357;SDS011;13668;52.154;5.580;2023-04-01T20:45:48;10.93;;;9.82;;
24357;SDS011;13668;52.154;5.580;2023-04-01T20:50:53;11.60;;;10.38;;
24357;SDS011;13668;52.154;5.580;2023-04-01T20:53:28;10.00;;;9.00;;
24357;SDS011;13668;52.154;5.580;2023-04-01T21:01:22;10.98;;;8.65;;
24357;SDS011;13668;52.154;5.580;2023-04-01T21:09:35;10.93;;;8.98;;
24357;SDS011;13668;52.154;5.580;2023-04-01T21:12:15;9.10;;;8.20;;
24357;SDS011;13668;52.154;5.580;2023-04-01T21:14:51;8.63;;;7.82;;
24357;SDS011;13668;52.154;5.580;2023-04-01T21:22:44;8.27;;;7.40;;
24357;SDS011;13668;52.154;5.580;2023-04-01T21:25:20;8.23;;;7.35;;
24357;SDS011;13668;52.154;5.580;2023-04-01T21:35:58;8.02;;;6.90;;
24357;SDS011;13668;52.154;5.580;2023-04-01T21:41:20;8.98;;;8.07;;
24357;SDS011;13668;52.154;5.580;2023-04-01T21:43:52;8.07;;;7.28;;
24357;SDS011;13668;52.154;5.580;2023-04-01T21:54:38;10.85;;;8.63;;
24357;SDS011;13668;52.154;5.580;2023-04-01T22:07:47;10.23;;;8.25;;
24357;SDS011;13668;52.154;5.580;2023-04-01T22:15:45;11.27;;;8.60;;
24357;SDS011;13668;52.154;5.580;2023-04-01T22:21:07;11.23;;;9.23;;
24357;SDS011;13668;52.154;5.580;2023-04-01T22:24:09;10.82;;;9.75;;
24357;SDS011;13668;52.154;5.580;2023-04-01T22:31:23;11.18;;;9.32;;
24357;SDS011;13668;52.154;5.580;2023-04-01T22:34:00;10.85;;;9.75;;
24357;SDS011;13668;52.154;5.580;2023-04-01T22:39:09;11.35;;;10.02;;
24357;SDS011;13668;52.154;5.580;2023-04-01T22:44:09;12.07;;;9.75;;
24357;SDS011;13668;52.154;5.580;2023-04-01T22:46:46;10.30;;;9.20;;
24357;SDS011;13668;52.154;5.580;2023-04-01T22:49:20;12.65;;;11.35;;
24357;SDS011;13668;52.154;5.580;2023-04-01T22:51:52;10.90;;;9.73;;
24357;SDS011;13668;52.154;5.580;2023-04-01T22:56:48;12.73;;;10.75;;
24357;SDS011;13668;52.154;5.580;2023-04-01T22:59:26;12.55;;;11.25;;
24357;SDS011;13668;52.154;5.580;2023-04-01T23:01:58;11.25;;;9.70;;
24357;SDS011;13668;52.154;5.580;2023-04-01T23:04:29;11.52;;;10.13;;
24357;SDS011;13668;52.154;5.580;2023-04-01T23:06:57;13.50;;;11.63;;
24357;SDS011;13668;52.154;5.580;2023-04-01T23:09:33;12.93;;;10.20;;
24357;SDS011;13668;52.154;5.580;2023-04-01T23:12:04;14.40;;;10.88;;
24357;SDS011;13668;52.154;5.580;2023-04-01T23:14:51;12.32;;;10.95;;
24357;SDS011;13668;52.154;5.580;2023-04-01T23:24:50;13.27;;;11.23;;
24357;SDS011;13668;52.154;5.580;2023-04-01T23:29:45;14.60;;;11.60;;
24357;SDS011;13668;52.154;5.580;2023-04-01T23:32:18;12.70;;;11.32;;
24357;SDS011;13668;52.154;5.580;2023-04-01T23:34:47;13.35;;;10.50;;
24357;SDS011;13668;52.154;5.580;2023-04-01T23:37:14;12.68;;;10.20;;
24357;SDS011;13668;52.154;5.580;2023-04-01T23:39:44;11.40;;;10.02;;
24357;SDS011;13668;52.154;5.580;2023-04-01T23:42:15;12.80;;;10.55;;
24357;SDS011;13668;52.154;5.580;2023-04-01T23:44:44;12.27;;;9.75;;
24357;SDS011;13668;52.154;5.580;2023-04-01T23:47:16;12.25;;;10.23;;
24357;SDS011;13668;52.154;5.580;2023-04-01T23:49:44;13.85;;;10.57;;
24357;SDS011;13668;52.154;5.580;2023-04-01T23:52:14;11.27;;;10.18;;
24357;SDS011;13668;52.154;5.580;2023-04-01T23:54:44;12.25;;;10.35;;
24357;SDS011;13668;52.154;5.580;2023-04-01T23:57:18;12.05;;;10.80;;
24357;SDS011;13668;52.154;5.580;2023-04-01T23:59:58;14.30;;;11.75;;
